Time;durP1;ratioP1;P1;durP2;ratioP2;P2;SDS_P1;SDS_P2;PMS_P1;PMS_P2;Temp;Humidity;BMP_temperature;BMP_pressure;BME280_temperature;BME280_humidity;BME280_pressure;Samples;Min_cycle;Max_cycle;Signal;HPM_P1;HPM_P2
2023/01/03 00:00:58;;;;;;;16.10;10.20;;;9.10;92.90;;;;;;1890106;75;21164;-58
2023/01/03 00:03:27;;;;;;;14.65;9.38;;;9.20;93.00;;;;;;1890170;76;21105;-58
2023/01/03 00:05:57;;;;;;;14.43;9.38;;;9.20;92.90;;;;;;1890094;76;21235;-58
2023/01/03 00:08:26;;;;;;;13.93;9.00;;;9.20;93.00;;;;;;1890233;76;21509;-58
2023/01/03 00:10:55;;;;;;;13.85;9.48;;;9.20;92.90;;;;;;1890085;76;21099;-58
2023/01/03 00:13:24;;;;;;;12.15;8.30;;;9.20;92.90;;;;;;1890059;76;21132;-58
2023/01/03 00:15:54;;;;;;;13.75;9.43;;;9.30;93.00;;;;;;1889988;76;21148;-58
2023/01/03 00:18:23;;;;;;;14.28;9.43;;;9.30;93.00;;;;;;1890140;75;21119;-59
2023/01/03 00:20:52;;;;;;;15.30;10.00;;;9.30;93.00;;;;;;1890080;76;21142;-58
2023/01/03 00:23:21;;;;;;;13.48;10.03;;;9.30;92.90;;;;;;1890063;76;21158;-58
2023/01/03 00:25:51;;;;;;;14.28;9.65;;;9.30;93.00;;;;;;1890068;76;21072;-58
2023/01/03 00:28:20;;;;;;;14.68;9.83;;;9.30;92.90;;;;;;1890007;76;21176;-58
2023/01/03 00:30:49;;;;;;;17.00;9.63;;;9.30;93.00;;;;;;1890057;76;21179;-58
2023/01/03 00:33:18;;;;;;;13.93;10.28;;;9.30;93.00;;;;;;1890039;76;21199;-58
2023/01/03 00:35:48;;;;;;;14.15;9.55;;;9.30;93.00;;;;;;1890087;76;21220;-58
2023/01/03 00:38:16;;;;;;;12.63;9.43;;;9.30;92.90;;;;;;1890071;76;21073;-58
2023/01/03 00:40:46;;;;;;;15.30;10.85;;;9.30;93.10;;;;;;1890085;76;21165;-58
2023/01/03 00:43:30;;;;;;;13.32;9.53;;;9.30;93.10;;;;;;1890005;76;21088;-58
2023/01/03 00:46:00;;;;;;;15.98;9.83;;;9.30;93.10;;;;;;1890443;76;21215;-58
2023/01/03 00:48:29;;;;;;;14.58;9.65;;;9.30;93.30;;;;;;1890040;76;21064;-58
2023/01/03 00:51:01;;;;;;;13.93;9.68;;;9.40;93.10;;;;;;1890063;76;21080;-58
2023/01/03 00:53:30;;;;;;;13.00;9.63;;;9.40;93.10;;;;;;1890062;76;21574;-58
2023/01/03 00:56:04;;;;;;;13.32;9.80;;;9.40;93.20;;;;;;1890075;76;21408;-58
2023/01/03 00:58:34;;;;;;;12.35;8.75;;;9.40;93.10;;;;;;1889421;76;21208;-58
2023/01/03 01:01:15;;;;;;;12.98;9.25;;;9.40;93.20;;;;;;1890179;75;21174;-58
2023/01/03 01:03:47;;;;;;;12.23;9.03;;;9.40;93.20;;;;;;1893221;76;21081;-58
2023/01/03 01:06:25;;;;;;;12.95;8.90;;;9.40;93.20;;;;;;1893272;76;21225;-58
2023/01/03 01:08:57;;;;;;;13.43;9.13;;;9.40;93.20;;;;;;1893148;76;21194;-58
2023/01/03 01:11:27;;;;;;;12.25;9.00;;;9.40;93.20;;;;;;1893161;76;21152;-58
2023/01/03 01:13:56;;;;;;;12.07;9.08;;;9.40;93.20;;;;;;1893188;76;21073;-58
2023/01/03 01:16:31;;;;;;;11.25;8.48;;;9.40;93.20;;;;;;1893243;76;21013;-58
2023/01/03 01:19:00;;;;;;;12.37;8.70;;;9.30;93.20;;;;;;1893390;76;21132;-58
2023/01/03 01:21:31;;;;;;;12.15;8.60;;;9.30;93.20;;;;;;1893171;76;21068;-58
2023/01/03 01:24:00;;;;;;;11.73;8.00;;;9.30;93.20;;;;;;1893151;76;21247;-58
2023/01/03 01:26:29;;;;;;;12.10;8.55;;;9.30;93.10;;;;;;1893185;76;21013;-58
2023/01/03 01:28:58;;;;;;;11.57;8.85;;;9.30;93.20;;;;;;1893151;76;21082;-58
2023/01/03 01:31:28;;;;;;;11.55;8.33;;;9.30;93.00;;;;;;1893244;76;21013;-58
2023/01/03 01:33:57;;;;;;;12.75;9.40;;;9.30;93.10;;;;;;1893094;76;21188;-58
2023/01/03 01:36:29;;;;;;;14.07;9.45;;;9.30;93.20;;;;;;1893120;76;21008;-58
2023/01/03 01:39:00;;;;;;;15.30;8.40;;;9.30;93.20;;;;;;1893103;76;21389;-58
2023/01/03 01:44:57;;;;;;;12.05;8.60;;;9.30;93.10;;;;;;1893219;76;21112;-58
2023/01/03 01:47:38;;;;;;;15.08;9.18;;;9.40;93.10;;;;;;1893226;76;21128;-58
2023/01/03 01:50:43;;;;;;;10.18;7.45;;;9.30;93.00;;;;;;1893449;76;21648;-58
2023/01/03 01:53:17;;;;;;;11.35;7.85;;;9.30;93.00;;;;;;1891739;76;21538;-58
2023/01/03 01:56:07;;;;;;;12.07;8.80;;;9.30;93.00;;;;;;1893346;74;21522;-58
2023/01/03 01:58:38;;;;;;;11.40;8.23;;;9.20;92.90;;;;;;1893252;76;21229;-58
2023/01/03 02:01:10;;;;;;;11.83;8.03;;;9.20;93.10;;;;;;1893234;76;21068;-58
2023/01/03 02:03:41;;;;;;;12.80;8.80;;;9.20;93.10;;;;;;1893243;75;21176;-57
2023/01/03 02:06:13;;;;;;;11.63;8.23;;;9.20;93.10;;;;;;1893274;76;21189;-58
2023/01/03 02:08:42;;;;;;;10.60;8.23;;;9.10;93.20;;;;;;1893308;76;21128;-58
2023/01/03 02:11:23;;;;;;;10.05;8.03;;;9.20;93.20;;;;;;1893219;76;21144;-58
2023/01/03 02:14:16;;;;;;;14.60;9.10;;;9.20;93.20;;;;;;1893325;76;21024;-58
2023/01/03 02:17:11;;;;;;;16.80;11.05;;;9.20;93.20;;;;;;1891181;76;21249;-58
2023/01/03 02:20:04;;;;;;;12.03;8.15;;;9.10;93.20;;;;;;1893317;76;21707;-58
2023/01/03 02:22:50;;;;;;;12.43;8.55;;;9.20;93.10;;;;;;1892867;76;21112;-58
2023/01/03 02:25:34;;;;;;;13.35;9.13;;;9.10;93.20;;;;;;1891755;76;21581;-58
2023/01/03 02:28:23;;;;;;;13.85;8.55;;;9.10;93.10;;;;;;1892777;76;21302;-58
2023/01/03 02:30:58;;;;;;;12.47;8.93;;;9.10;93.20;;;;;;1893219;76;21172;-58
2023/01/03 02:33:51;;;;;;;16.60;11.12;;;9.00;93.30;;;;;;1865679;76;21674;-58
2023/01/03 02:36:29;;;;;;;13.65;10.15;;;9.00;93.40;;;;;;1892574;76;21175;-58
2023/01/03 02:39:07;;;;;;;14.40;9.70;;;9.00;93.30;;;;;;1893184;76;21140;-58
2023/01/03 02:41:41;;;;;;;13.75;8.58;;;9.00;93.40;;;;;;1893312;76;21241;-58
2023/01/03 02:44:16;;;;;;;48.58;25.62;;;9.00;93.40;;;;;;1893248;76;21727;-58
2023/01/03 02:46:48;;;;;;;22.98;15.03;;;9.00;93.30;;;;;;1893273;76;21078;-57
2023/01/03 02:49:26;;;;;;;18.40;10.90;;;9.00;93.00;;;;;;1893232;76;21112;-58
2023/01/03 02:51:57;;;;;;;20.25;12.95;;;8.90;93.10;;;;;;1891393;76;21629;-58
2023/01/03 02:54:32;;;;;;;17.25;12.53;;;8.80;93.30;;;;;;1893224;76;21144;-58
2023/01/03 02:57:10;;;;;;;23.45;15.32;;;8.70;93.10;;;;;;1892820;76;21669;-58
2023/01/03 02:59:44;;;;;;;23.35;14.05;;;8.70;93.10;;;;;;1892383;76;21777;-58
2023/01/03 03:02:16;;;;;;;21.82;13.53;;;8.60;93.30;;;;;;1893287;75;21056;-58
2023/01/03 03:04:48;;;;;;;22.22;13.62;;;8.60;93.40;;;;;;1893162;76;21164;-58
2023/01/03 03:07:20;;;;;;;26.60;14.50;;;8.50;93.40;;;;;;1893178;76;21017;-58
2023/01/03 03:15:29;;;;;;;21.17;12.70;;;8.50;93.50;;;;;;1893258;76;21173;-58
2023/01/03 03:18:00;;;;;;;18.80;11.97;;;8.50;93.60;;;;;;1893051;76;21152;-58
2023/01/03 03:26:11;;;;;;;19.80;11.95;;;8.50;93.40;;;;;;1893293;76;21207;-58
2023/01/03 03:28:43;;;;;;;22.48;14.38;;;8.40;93.40;;;;;;1893299;76;21602;-58
2023/01/03 03:31:17;;;;;;;23.22;14.53;;;8.40;93.50;;;;;;1893253;76;21589;-58
2023/01/03 03:33:55;;;;;;;25.25;13.70;;;8.40;93.50;;;;;;1893553;76;21148;-58
2023/01/03 03:36:30;;;;;;;34.27;17.98;;;8.50;93.60;;;;;;1893122;76;21327;-58
2023/01/03 03:39:00;;;;;;;39.42;21.87;;;8.50;93.70;;;;;;1883229;76;21188;-57
2023/01/03 03:47:20;;;;;;;20.88;11.85;;;8.40;93.20;;;;;;1893854;76;21036;-58
2023/01/03 03:49:52;;;;;;;19.77;11.90;;;8.30;93.30;;;;;;1893209;76;21250;-58
2023/01/03 03:52:24;;;;;;;24.87;13.78;;;8.30;93.50;;;;;;1893279;76;21319;-58
2023/01/03 03:54:55;;;;;;;19.45;13.13;;;8.30;93.60;;;;;;1893231;76;21337;-58
2023/01/03 03:57:33;;;;;;;20.65;12.10;;;8.30;93.50;;;;;;1892834;76;21108;-58
2023/01/03 04:00:08;;;;;;;22.15;11.30;;;8.20;93.60;;;;;;1893189;76;21561;-58
2023/01/03 04:02:41;;;;;;;19.15;11.18;;;8.20;93.40;;;;;;1892491;75;21169;-57
2023/01/03 04:05:12;;;;;;;18.20;11.08;;;8.20;93.60;;;;;;1890106;76;21214;-58
2023/01/03 04:07:41;;;;;;;19.05;12.05;;;8.20;93.70;;;;;;1889988;76;21201;-58
2023/01/03 04:10:12;;;;;;;20.97;12.15;;;8.20;93.70;;;;;;1890175;76;21129;-58
2023/01/03 04:12:41;;;;;;;17.65;12.35;;;8.20;93.70;;;;;;1890119;76;21135;-58
2023/01/03 04:15:11;;;;;;;20.97;13.13;;;8.20;93.70;;;;;;1890026;76;21068;-58
2023/01/03 04:17:40;;;;;;;17.70;11.43;;;8.20;93.70;;;;;;1890158;76;21132;-58
2023/01/03 04:20:09;;;;;;;17.37;11.53;;;8.20;93.70;;;;;;1890000;76;21192;-57
2023/01/03 04:22:39;;;;;;;16.90;11.35;;;8.20;93.70;;;;;;1890157;76;21064;-58
2023/01/03 04:25:08;;;;;;;21.00;13.10;;;8.20;93.70;;;;;;1890050;76;21570;-58
2023/01/03 04:27:38;;;;;;;24.47;14.20;;;8.20;93.70;;;;;;1890057;76;21073;-58
2023/01/03 04:30:10;;;;;;;28.40;13.58;;;8.20;93.70;;;;;;1890045;76;21024;-58
2023/01/03 04:32:38;;;;;;;30.40;16.12;;;8.10;93.80;;;;;;1890049;76;21519;-58
2023/01/03 04:35:08;;;;;;;26.50;14.80;;;8.20;93.90;;;;;;1890034;76;21213;-58
2023/01/03 04:37:37;;;;;;;27.67;14.07;;;8.30;93.80;;;;;;1890063;76;21335;-58
2023/01/03 04:40:11;;;;;;;35.75;16.25;;;8.30;93.70;;;;;;1890053;76;21192;-58
2023/01/03 04:45:28;;;;;;;23.92;12.23;;;8.20;93.60;;;;;;1890105;76;21234;-58
2023/01/03 04:47:57;;;;;;;27.60;12.10;;;8.20;93.60;;;;;;1890019;76;21204;-58
2023/01/03 04:50:26;;;;;;;23.47;12.50;;;8.20;93.60;;;;;;1890029;76;21192;-58
2023/01/03 04:52:55;;;;;;;15.88;10.08;;;8.20;93.70;;;;;;1890156;76;21012;-58
2023/01/03 04:55:24;;;;;;;17.02;10.25;;;8.20;93.70;;;;;;1890034;76;21082;-58
2023/01/03 04:57:54;;;;;;;18.70;10.48;;;8.20;93.60;;;;;;1890012;76;21161;-58
2023/01/03 05:00:23;;;;;;;14.98;9.80;;;8.20;93.80;;;;;;1890014;76;21231;-58
2023/01/03 05:02:52;;;;;;;16.17;9.33;;;8.20;93.80;;;;;;1889979;76;21194;-58
2023/01/03 05:05:21;;;;;;;13.60;9.15;;;8.20;93.80;;;;;;1890001;75;21164;-58
2023/01/03 05:07:51;;;;;;;19.82;9.58;;;8.20;93.70;;;;;;1889990;76;21049;-58
2023/01/03 05:10:20;;;;;;;17.82;9.60;;;8.20;93.70;;;;;;1890049;75;21311;-58
2023/01/03 05:12:58;;;;;;;18.07;10.63;;;8.20;93.50;;;;;;1890111;76;21090;-58
2023/01/03 05:15:20;;;;;;;16.73;9.68;;;8.20;93.50;;;;;;1889715;76;21387;-58
2023/01/03 05:17:49;;;;;;;17.95;10.13;;;8.10;93.60;;;;;;1889880;76;21333;-58
2023/01/03 05:25:52;;;;;;;21.27;11.05;;;8.10;93.80;;;;;;1890151;76;21136;-58
2023/01/03 05:28:23;;;;;;;17.37;10.40;;;8.10;93.70;;;;;;1890033;76;21198;-58
2023/01/03 05:30:53;;;;;;;25.10;11.95;;;8.10;93.80;;;;;;1890156;76;21064;-58
2023/01/03 05:33:21;;;;;;;22.20;10.78;;;8.10;93.70;;;;;;1889847;76;21154;-58
2023/01/03 05:35:51;;;;;;;21.35;11.05;;;8.10;93.60;;;;;;1889853;76;21588;-58
2023/01/03 05:38:22;;;;;;;18.23;11.28;;;8.10;93.60;;;;;;1889934;76;21017;-58
2023/01/03 05:40:51;;;;;;;20.55;11.25;;;8.10;93.60;;;;;;1890050;76;21090;-58
2023/01/03 05:43:21;;;;;;;19.23;11.45;;;8.10;93.70;;;;;;1890032;76;21080;-58
2023/01/03 05:45:51;;;;;;;19.48;12.23;;;8.10;93.50;;;;;;1890089;76;21092;-58
2023/01/03 05:48:21;;;;;;;26.97;14.28;;;8.00;93.40;;;;;;1890144;76;21029;-57
2023/01/03 05:50:51;;;;;;;25.82;14.63;;;8.00;93.50;;;;;;1890036;76;21065;-58
2023/01/03 05:53:20;;;;;;;26.87;14.73;;;8.00;93.60;;;;;;1890150;76;21083;-58
2023/01/03 05:55:49;;;;;;;19.35;11.73;;;8.00;93.70;;;;;;1890067;76;21106;-58
2023/01/03 05:58:18;;;;;;;21.00;11.90;;;8.00;93.60;;;;;;1890132;76;21112;-58
2023/01/03 06:00:47;;;;;;;20.37;11.53;;;8.10;93.60;;;;;;1889974;76;21555;-58
2023/01/03 06:03:17;;;;;;;28.73;14.98;;;8.10;93.80;;;;;;1889962;76;21210;-58
2023/01/03 06:05:46;;;;;;;24.85;12.75;;;8.10;93.80;;;;;;1892363;75;21105;-58
2023/01/03 06:08:15;;;;;;;22.02;13.22;;;8.20;93.60;;;;;;1893061;76;21111;-58
2023/01/03 06:10:45;;;;;;;23.65;12.73;;;8.10;93.30;;;;;;1893177;76;21083;-57
2023/01/03 06:13:14;;;;;;;33.13;13.85;;;8.10;92.90;;;;;;1893304;76;21012;-58
2023/01/03 06:17:53;;;;;;;23.38;12.78;;;8.00;93.00;;;;;;1893052;76;21074;-58
2023/01/03 06:18:14;;;;;;;28.02;13.75;;;8.00;93.00;;;;;;1893097;76;21107;-58
2023/01/03 06:20:43;;;;;;;20.62;12.37;;;8.00;93.00;;;;;;1893071;76;21080;-58
2023/01/03 06:23:12;;;;;;;24.77;12.05;;;7.90;92.80;;;;;;1893183;76;21094;-58
2023/01/03 06:25:41;;;;;;;17.05;10.53;;;7.90;93.00;;;;;;1893143;76;21128;-58
2023/01/03 06:28:11;;;;;;;24.75;11.18;;;8.00;93.00;;;;;;1893057;76;21132;-58
2023/01/03 06:30:40;;;;;;;16.77;10.65;;;8.00;93.00;;;;;;1893090;76;21177;-58
2023/01/03 06:33:10;;;;;;;16.77;10.48;;;8.00;93.00;;;;;;1893208;76;21440;-58
2023/01/03 06:35:40;;;;;;;17.57;11.03;;;8.00;92.90;;;;;;1893092;76;21017;-58
2023/01/03 06:38:09;;;;;;;17.80;11.40;;;8.00;93.00;;;;;;1893142;76;21060;-58
2023/01/03 06:40:38;;;;;;;19.02;11.73;;;8.10;93.00;;;;;;1893288;76;21098;-58
2023/01/03 06:43:07;;;;;;;20.20;11.35;;;8.10;92.90;;;;;;1893185;76;21150;-58
2023/01/03 06:53:59;;;;;;;22.70;14.60;;;8.40;92.90;;;;;;1893153;76;21114;-58
2023/01/03 06:56:28;;;;;;;21.35;12.55;;;8.40;92.70;;;;;;1893192;76;21009;-58
2023/01/03 06:58:57;;;;;;;23.27;13.48;;;8.50;92.60;;;;;;1893153;76;21135;-58
2023/01/03 07:01:26;;;;;;;22.82;12.65;;;8.40;92.50;;;;;;1893159;76;21106;-58
2023/01/03 07:03:56;;;;;;;25.72;13.93;;;8.50;92.70;;;;;;1893313;76;21476;-58
2023/01/03 07:06:26;;;;;;;17.45;11.65;;;8.60;92.70;;;;;;1890607;75;21124;-58
2023/01/03 07:08:56;;;;;;;20.68;12.03;;;8.60;92.70;;;;;;1890067;76;21132;-58
2023/01/03 07:11:25;;;;;;;19.05;11.75;;;8.70;92.90;;;;;;1890101;76;21076;-58
2023/01/03 07:13:57;;;;;;;15.48;10.93;;;8.90;93.00;;;;;;1890141;76;21068;-58
2023/01/03 07:16:42;;;;;;;18.65;12.37;;;9.00;93.10;;;;;;1890173;76;21068;-58
2023/01/03 07:19:13;;;;;;;;;;;9.10;93.20;;;;;;1892903;76;21118;-58
2023/01/03 07:21:42;;;;;;;18.85;11.75;;;9.30;93.20;;;;;;1889574;76;20622;-57
2023/01/03 07:24:13;;;;;;;25.43;12.78;;;9.40;93.00;;;;;;1890024;76;21001;-58
2023/01/03 07:26:42;;;;;;;20.12;10.98;;;9.50;92.80;;;;;;1890110;76;21088;-58
2023/01/03 07:29:12;;;;;;;22.58;11.63;;;9.50;92.90;;;;;;1890047;76;21016;-58
2023/01/03 07:31:41;;;;;;;19.12;12.65;;;9.60;93.00;;;;;;1890034;76;21028;-58
2023/01/03 07:34:10;;;;;;;19.27;10.95;;;9.70;92.90;;;;;;1890180;76;20985;-57
2023/01/03 07:36:40;;;;;;;19.50;11.10;;;9.80;92.80;;;;;;1890104;76;21033;-58
2023/01/03 07:39:08;;;;;;;22.00;11.75;;;9.80;92.80;;;;;;1890122;76;21037;-58
2023/01/03 07:44:26;;;;;;;19.37;10.13;;;9.90;92.80;;;;;;1890063;76;21052;-58
2023/01/03 07:46:55;;;;;;;21.27;11.80;;;10.00;92.80;;;;;;1890063;76;21009;-58
2023/01/03 07:49:25;;;;;;;23.90;13.58;;;10.10;92.80;;;;;;1890185;76;21033;-58
2023/01/03 07:51:54;;;;;;;22.22;12.58;;;10.10;92.80;;;;;;1890020;76;21072;-58
2023/01/03 07:54:23;;;;;;;21.73;13.80;;;10.20;92.90;;;;;;1890040;76;21425;-58
2023/01/03 07:56:52;;;;;;;30.02;14.38;;;10.30;92.80;;;;;;1889997;75;21099;-58
2023/01/03 07:59:21;;;;;;;23.73;13.28;;;10.40;92.70;;;;;;1890132;76;21017;-58
2023/01/03 08:01:50;;;;;;;22.80;11.53;;;10.50;92.40;;;;;;1890185;76;21012;-58
2023/01/03 08:04:20;;;;;;;25.25;14.35;;;10.50;92.40;;;;;;1890078;76;21098;-58
2023/01/03 08:06:49;;;;;;;21.07;10.45;;;10.60;92.20;;;;;;1889979;75;21028;-58
2023/01/03 08:14:53;;;;;;;9.03;5.83;;;10.90;91.40;;;;;;1890154;76;21037;-58
2023/01/03 08:17:22;;;;;;;17.52;8.30;;;11.10;91.10;;;;;;1889999;76;21005;-58
2023/01/03 08:19:51;;;;;;;13.95;7.22;;;11.10;88.20;;;;;;1890044;76;21021;-57
2023/01/03 08:22:20;;;;;;;14.33;7.12;;;11.20;90.40;;;;;;1889965;76;21025;-57
2023/01/03 08:24:50;;;;;;;11.75;7.55;;;11.30;90.40;;;;;;1890117;76;21041;-58
2023/01/03 08:27:19;;;;;;;7.62;5.53;;;11.40;90.00;;;;;;1890047;76;21115;-57
2023/01/03 08:29:48;;;;;;;9.78;6.45;;;11.50;88.50;;;;;;1890138;76;21040;-58
2023/01/03 08:32:17;;;;;;;28.32;7.97;;;11.50;89.30;;;;;;1889899;76;21036;-58
2023/01/03 08:34:47;;;;;;;7.20;5.22;;;11.60;89.40;;;;;;1889979;76;21102;-57
2023/01/03 08:37:17;;;;;;;7.78;4.87;;;11.60;89.20;;;;;;1890016;76;20993;-57
2023/01/03 08:39:58;;;;;;;9.50;5.50;;;11.70;88.70;;;;;;1890000;76;21118;-57
2023/01/03 08:42:28;;;;;;;8.70;5.42;;;11.70;89.00;;;;;;1890014;76;21105;-57
2023/01/03 08:45:00;;;;;;;11.93;5.65;;;11.80;88.20;;;;;;1890083;76;21016;-57
2023/01/03 08:47:29;;;;;;;9.15;5.65;;;11.80;88.00;;;;;;1889989;76;21068;-57
2023/01/03 08:49:59;;;;;;;12.20;5.53;;;11.80;88.10;;;;;;1890140;76;21016;-57
2023/01/03 08:52:28;;;;;;;11.10;5.33;;;11.90;87.00;;;;;;1890113;76;21082;-57
2023/01/03 08:54:58;;;;;;;8.65;5.70;;;11.90;87.00;;;;;;1889963;76;21024;-57
2023/01/03 08:57:27;;;;;;;7.47;4.65;;;11.90;86.60;;;;;;1890241;76;21016;-57
2023/01/03 08:59:56;;;;;;;6.40;4.62;;;11.90;86.30;;;;;;1890076;76;21094;-57
2023/01/03 09:02:26;;;;;;;6.42;4.67;;;12.00;85.80;;;;;;1890069;76;21408;-57
2023/01/03 09:04:55;;;;;;;6.45;4.47;;;12.10;85.40;;;;;;1890078;76;21063;-57
2023/01/03 09:07:24;;;;;;;9.83;5.35;;;12.10;85.60;;;;;;1892225;75;21056;-57
2023/01/03 09:09:53;;;;;;;9.18;4.70;;;12.20;84.90;;;;;;1893109;76;21460;-57
2023/01/03 09:12:22;;;;;;;10.32;5.58;;;12.20;84.90;;;;;;1893006;76;21129;-57
2023/01/03 09:14:52;;;;;;;8.35;5.37;;;12.20;84.80;;;;;;1893156;76;21127;-57
2023/01/03 09:17:21;;;;;;;5.70;3.90;;;12.30;84.30;;;;;;1893031;76;21028;-57
2023/01/03 09:19:50;;;;;;;10.30;5.65;;;12.30;83.30;;;;;;1893129;76;21149;-57
2023/01/03 09:22:19;;;;;;;8.98;5.53;;;12.40;82.20;;;;;;1893071;76;21020;-57
2023/01/03 09:24:48;;;;;;;13.15;5.75;;;12.40;82.20;;;;;;1893120;76;21020;-57
2023/01/03 09:27:17;;;;;;;11.93;6.28;;;12.50;82.30;;;;;;1893085;76;21004;-57
2023/01/03 09:29:47;;;;;;;9.48;5.47;;;12.50;82.80;;;;;;1893083;76;21020;-57
2023/01/03 09:32:16;;;;;;;8.13;4.55;;;12.50;82.40;;;;;;1893113;76;21090;-57
2023/01/03 09:34:45;;;;;;;6.80;4.35;;;12.60;81.60;;;;;;1893028;76;21032;-57
2023/01/03 09:37:14;;;;;;;7.40;4.78;;;12.60;81.40;;;;;;1893025;76;21025;-57
2023/01/03 09:39:43;;;;;;;9.43;5.70;;;12.60;81.40;;;;;;1893087;76;21013;-58
2023/01/03 09:45:08;;;;;;;;;;;12.70;80.20;;;;;;1895947;76;21056;-57
2023/01/03 09:47:38;;;;;;;7.83;4.47;;;12.70;78.20;;;;;;1893035;76;20566;-57
2023/01/03 09:50:09;;;;;;;8.20;5.00;;;12.70;80.60;;;;;;1892952;76;21099;-57
2023/01/03 10:04:28;;;;;;;8.48;4.65;;;12.90;79.90;;;;;;1892899;76;21048;-57
2023/01/03 10:07:29;;;;;;;5.90;4.40;;;12.90;78.90;;;;;;1880737;75;21072;-58
2023/01/03 10:10:21;;;;;;;11.63;6.70;;;12.90;79.80;;;;;;1893097;76;21110;-57
2023/01/03 10:13:13;;;;;;;7.45;5.20;;;13.00;79.70;;;;;;1891015;76;21487;-57
2023/01/03 10:16:06;;;;;;;6.25;4.92;;;13.00;80.00;;;;;;1893117;76;21060;-57
2023/01/03 10:18:58;;;;;;;14.10;6.20;;;13.10;79.40;;;;;;1892223;76;21028;-57
2023/01/03 10:21:46;;;;;;;11.85;6.45;;;13.00;80.00;;;;;;1893046;76;21028;-57
2023/01/03 10:24:18;;;;;;;7.50;5.03;;;13.10;78.70;;;;;;1893103;76;21114;-57
2023/01/03 10:26:49;;;;;;;6.83;5.50;;;13.10;79.10;;;;;;1888312;76;21557;-57
2023/01/03 10:29:19;;;;;;;7.62;5.78;;;13.20;78.30;;;;;;1893087;76;21545;-58
2023/01/03 10:32:00;;;;;;;5.75;5.03;;;13.20;79.00;;;;;;1893167;76;21095;-57
2023/01/03 10:34:29;;;;;;;6.10;4.70;;;13.20;78.80;;;;;;1892052;76;21086;-58
2023/01/03 10:36:58;;;;;;;9.50;6.92;;;13.20;77.70;;;;;;1893100;76;21090;-57
2023/01/03 10:39:31;;;;;;;8.68;5.70;;;13.30;77.70;;;;;;1892949;76;20989;-58
2023/01/03 10:42:02;;;;;;;7.62;5.17;;;13.30;77.70;;;;;;1893109;76;21056;-57
2023/01/03 10:44:32;;;;;;;7.15;5.85;;;13.30;78.20;;;;;;1892939;76;21021;-57
2023/01/03 10:47:10;;;;;;;7.10;5.37;;;13.30;78.00;;;;;;1892980;76;21114;-57
2023/01/03 10:49:41;;;;;;;7.25;5.03;;;13.40;77.30;;;;;;1893043;76;21009;-58
2023/01/03 10:52:16;;;;;;;8.10;4.40;;;13.40;76.90;;;;;;1892936;76;21423;-57
2023/01/03 10:54:49;;;;;;;;;;;13.40;76.90;;;;;;1895865;76;21017;-57
2023/01/03 10:57:49;;;;;;;8.50;4.92;;;13.40;75.20;;;;;;1893099;76;20140;-58
2023/01/03 11:00:36;;;;;;;6.45;4.72;;;13.40;77.20;;;;;;1891994;76;21036;-58
2023/01/03 11:03:17;;;;;;;6.75;5.05;;;13.40;75.80;;;;;;1893196;76;21036;-58
2023/01/03 11:05:48;;;;;;;7.00;4.60;;;13.40;75.40;;;;;;1893098;76;21130;-58
2023/01/03 11:08:20;;;;;;;4.83;4.33;;;13.50;74.90;;;;;;1893135;75;21065;-58
2023/01/03 11:10:52;;;;;;;4.83;4.33;;;13.50;75.50;;;;;;1893102;76;20989;-58
2023/01/03 11:13:39;;;;;;;9.78;4.40;;;13.50;75.40;;;;;;1893189;76;21020;-58
2023/01/03 11:16:19;;;;;;;6.10;4.75;;;13.50;75.20;;;;;;1893027;76;21098;-58
2023/01/03 11:19:00;;;;;;;6.40;5.05;;;13.50;74.30;;;;;;1893126;76;21037;-59
2023/01/03 11:21:50;;;;;;;10.00;5.67;;;13.50;75.00;;;;;;1891301;76;21017;-59
2023/01/03 11:24:27;;;;;;;12.40;5.20;;;13.50;74.90;;;;;;1893051;75;21049;-59
2023/01/03 11:27:05;;;;;;;9.88;6.12;;;13.60;75.40;;;;;;1892402;76;21096;-59
2023/01/03 11:29:55;;;;;;;5.97;5.37;;;13.60;74.70;;;;;;1892958;76;21029;-59
2023/01/03 11:32:30;;;;;;;6.67;4.50;;;13.60;74.90;;;;;;1891885;76;21478;-59
2023/01/03 11:35:32;;;;;;;7.60;4.50;;;13.60;74.70;;;;;;1892470;76;21095;-59
2023/01/03 11:38:06;;;;;;;10.55;5.10;;;13.60;75.10;;;;;;1893035;76;21471;-59
2023/01/03 11:41:07;;;;;;;5.37;4.60;;;13.60;75.30;;;;;;1893004;76;21025;-59
2023/01/03 11:43:44;;;;;;;5.72;4.75;;;13.60;75.40;;;;;;1891792;76;21350;-58
2023/01/03 11:46:39;;;;;;;8.88;5.45;;;13.60;75.00;;;;;;1888194;76;21017;-59
2023/01/03 11:49:28;;;;;;;6.12;5.17;;;13.60;75.20;;;;;;1893289;76;21040;-59
2023/01/03 11:52:05;;;;;;;8.93;4.70;;;13.60;75.10;;;;;;1893204;76;21036;-59
2023/01/03 11:54:58;;;;;;;8.85;4.87;;;13.60;75.00;;;;;;1891887;74;21495;-58
2023/01/03 11:57:36;;;;;;;7.17;4.47;;;13.60;75.30;;;;;;1891805;76;21028;-58
2023/01/03 12:00:24;;;;;;;8.50;6.40;;;13.60;75.00;;;;;;1890119;76;21137;-58
2023/01/03 12:03:10;;;;;;;6.60;4.50;;;13.60;74.80;;;;;;1891635;74;21098;-58
2023/01/03 12:05:45;;;;;;;7.00;4.53;;;13.60;74.40;;;;;;1892969;76;21087;-59
2023/01/03 12:08:20;;;;;;;6.87;4.55;;;13.60;74.30;;;;;;1891787;75;21479;-58
2023/01/03 12:10:58;;;;;;;5.15;4.65;;;13.60;74.30;;;;;;1887546;76;21106;-58
2023/01/03 12:13:39;;;;;;;5.65;4.28;;;13.60;74.00;;;;;;1889510;76;21021;-58
2023/01/03 12:16:11;;;;;;;8.63;5.15;;;13.60;74.30;;;;;;1889475;76;21507;-58
2023/01/03 12:18:45;;;;;;;13.65;5.55;;;13.60;73.90;;;;;;1889847;76;21005;-58
2023/01/03 12:21:18;;;;;;;;;;;13.60;74.20;;;;;;1892207;76;21122;-58
2023/01/03 12:24:11;;;;;;;6.80;5.22;;;13.60;73.60;;;;;;1889845;75;20104;-58
2023/01/03 12:26:42;;;;;;;9.58;4.80;;;13.50;74.90;;;;;;1889894;76;21028;-58
2023/01/03 12:29:20;;;;;;;9.75;5.22;;;13.50;73.90;;;;;;1890065;76;21135;-58
2023/01/03 12:32:03;;;;;;;15.00;5.70;;;13.50;74.00;;;;;;1890183;76;21479;-59
2023/01/03 12:34:41;;;;;;;8.55;4.53;;;13.50;74.50;;;;;;1889874;76;21037;-59
2023/01/03 12:37:28;;;;;;;8.43;4.90;;;13.50;75.00;;;;;;1889747;76;21045;-58
2023/01/03 12:40:03;;;;;;;6.20;4.72;;;13.40;74.90;;;;;;1890011;76;21122;-59
2023/01/03 12:42:44;;;;;;;5.72;4.53;;;13.40;74.30;;;;;;1887757;76;21103;-60
2023/01/03 12:45:34;;;;;;;5.55;4.85;;;13.40;73.70;;;;;;1890010;76;21464;-59
2023/01/03 12:48:31;;;;;;;7.65;5.33;;;13.40;73.20;;;;;;1890036;75;21467;-60
2023/01/03 12:51:01;;;;;;;5.62;4.72;;;13.40;73.50;;;;;;1890069;76;21088;-57
2023/01/03 12:53:45;;;;;;;7.72;5.40;;;13.30;73.30;;;;;;1890059;76;21044;-57
2023/01/03 12:56:38;;;;;;;6.40;4.95;;;13.30;73.10;;;;;;1889997;76;21110;-57
2023/01/03 12:59:28;;;;;;;5.17;4.45;;;13.20;73.20;;;;;;1890114;76;21064;-57
2023/01/03 13:01:59;;;;;;;6.53;4.95;;;13.20;73.10;;;;;;1854605;77;21153;-57
2023/01/03 13:04:31;;;;;;;9.53;5.67;;;13.10;73.00;;;;;;1880920;76;21112;-57
2023/01/03 13:07:16;;;;;;;6.55;4.72;;;13.10;72.90;;;;;;1890202;76;21048;-57
2023/01/03 13:09:51;;;;;;;7.75;5.62;;;13.10;73.50;;;;;;1873680;76;21096;-57
2023/01/03 13:12:22;;;;;;;8.65;6.53;;;13.00;73.10;;;;;;1890158;76;21144;-59
2023/01/03 13:14:57;;;;;;;12.05;5.85;;;13.00;73.80;;;;;;1889974;76;21032;-57
2023/01/03 13:17:28;;;;;;;9.83;6.37;;;12.90;73.60;;;;;;1890139;76;21102;-57
2023/01/03 13:19:59;;;;;;;9.90;6.75;;;12.90;74.00;;;;;;1889787;76;21548;-57
2023/01/03 13:22:53;;;;;;;8.20;4.67;;;12.80;73.50;;;;;;1889904;76;21028;-57
2023/01/03 13:25:32;;;;;;;7.43;4.97;;;12.80;72.90;;;;;;1890284;76;21048;-57
2023/01/03 13:28:10;;;;;;;7.28;5.17;;;12.70;72.50;;;;;;1890038;76;21045;-59
2023/01/03 13:30:39;;;;;;;6.25;5.28;;;12.60;72.70;;;;;;1889878;76;21490;-60
2023/01/03 13:33:15;;;;;;;7.97;5.17;;;12.60;72.20;;;;;;1890148;76;21045;-59
2023/01/03 13:35:48;;;;;;;;;;;12.50;72.30;;;;;;1892734;76;21032;-57
2023/01/03 13:38:34;;;;;;;9.50;4.95;;;12.40;69.80;;;;;;1889929;76;20191;-57
2023/01/03 13:41:08;;;;;;;6.80;4.95;;;12.40;72.60;;;;;;1889928;76;21118;-57
2023/01/03 13:43:38;;;;;;;5.67;4.83;;;12.30;71.90;;;;;;1885958;76;21029;-57
2023/01/03 13:46:28;;;;;;;7.40;5.60;;;12.20;72.20;;;;;;1889875;76;21072;-59
2023/01/03 13:49:07;;;;;;;7.20;5.10;;;12.20;72.50;;;;;;1889947;76;21036;-59
2023/01/03 13:51:42;;;;;;;7.15;5.80;;;12.10;72.90;;;;;;1890050;76;21017;-59
2023/01/03 13:54:14;;;;;;;7.53;5.65;;;12.10;72.50;;;;;;1890122;76;21463;-59
2023/01/03 13:56:46;;;;;;;9.28;5.35;;;12.10;72.80;;;;;;1890036;76;21122;-60
2023/01/03 13:59:21;;;;;;;9.48;6.28;;;12.00;73.30;;;;;;1889913;76;21094;-59
2023/01/03 14:01:58;;;;;;;11.30;5.47;;;12.00;73.40;;;;;;1890153;76;21029;-59
2023/01/03 14:04:50;;;;;;;8.43;5.72;;;11.90;73.50;;;;;;1889912;76;21103;-57
2023/01/03 14:07:22;;;;;;;7.25;5.28;;;11.90;73.80;;;;;;1890023;76;21049;-57
2023/01/03 14:10:12;;;;;;;14.28;7.10;;;11.80;74.00;;;;;;1889979;75;21044;-57
2023/01/03 14:12:56;;;;;;;9.13;6.15;;;11.80;74.10;;;;;;1889921;76;20985;-56
2023/01/03 14:15:26;;;;;;;10.65;6.53;;;11.70;73.80;;;;;;1889998;76;21102;-57
2023/01/03 14:18:01;;;;;;;13.40;6.62;;;11.70;74.20;;;;;;1889934;76;21013;-56